createdAt,value
2023-03-23T15:59:16.437Z,15.00
2023-03-23T16:01:49.236Z,15.10
2023-03-23T16:04:22.130Z,15.30
2023-03-23T16:06:57.302Z,15.50
2023-03-23T16:09:29.292Z,15.60
2023-03-23T16:12:01.410Z,15.70
2023-03-23T16:14:33.360Z,15.60
2023-03-23T16:17:06.007Z,15.60
2023-03-23T16:19:38.383Z,15.50
2023-03-23T16:22:10.796Z,15.40
2023-03-23T16:24:42.830Z,15.30
2023-03-23T16:27:15.117Z,15.20
2023-03-23T16:30:02.817Z,15.20
2023-03-23T16:35:07.491Z,15.00
2023-03-23T16:37:39.657Z,15.00
2023-03-23T16:40:14.023Z,15.10
2023-03-23T16:42:46.354Z,15.20
2023-03-23T16:45:19.538Z,15.30
2023-03-23T16:47:51.631Z,15.40
2023-03-23T16:50:23.589Z,15.40
2023-03-23T16:52:56.236Z,15.50
2023-03-23T16:55:30.106Z,15.50
2023-03-23T16:58:15.339Z,15.40
2023-03-23T17:00:51.583Z,15.40
2023-03-23T17:03:23.700Z,15.30
2023-03-23T17:05:55.754Z,15.20
2023-03-23T17:08:28.752Z,15.10
2023-03-23T17:11:00.906Z,15.10
2023-03-23T17:13:32.975Z,15.00
2023-03-23T17:16:05.784Z,15.00
2023-03-23T17:18:37.760Z,14.90
2023-03-23T17:21:09.720Z,14.90
2023-03-23T17:23:41.648Z,14.90
2023-03-23T17:26:13.571Z,14.90
2023-03-23T17:28:45.899Z,14.90
2023-03-23T17:31:17.891Z,14.90
2023-03-23T17:33:51.690Z,14.90
2023-03-23T17:36:24.652Z,14.90
2023-03-23T17:38:56.639Z,14.90
2023-03-23T17:41:28.578Z,14.90
2023-03-23T17:44:01.082Z,14.80
2023-03-23T17:46:33.690Z,14.90
2023-03-23T17:49:05.804Z,14.90
2023-03-23T17:51:37.719Z,14.80
2023-03-23T17:54:09.749Z,14.80
2023-03-23T17:56:41.777Z,14.90
2023-03-23T17:59:13.756Z,14.90
2023-03-23T18:01:48.915Z,14.90
2023-03-23T18:04:22.531Z,14.90
2023-03-23T18:06:58.633Z,14.90
2023-03-23T18:09:30.800Z,14.90
2023-03-23T18:12:02.896Z,14.90
2023-03-23T18:14:35.738Z,14.90
2023-03-23T18:17:07.770Z,14.90
2023-03-23T18:19:39.792Z,14.90
2023-03-23T18:22:11.726Z,14.90
2023-03-23T18:24:43.604Z,14.90
2023-03-23T18:27:16.298Z,14.90
2023-03-23T18:29:48.291Z,14.90
2023-03-23T18:32:20.707Z,14.90
2023-03-23T18:34:52.795Z,14.90
2023-03-23T18:37:24.723Z,14.90
2023-03-23T18:39:56.760Z,14.90
2023-03-23T18:42:29.407Z,14.90
2023-03-23T18:45:01.505Z,14.90
2023-03-23T18:47:34.237Z,14.90
2023-03-23T18:50:09.679Z,14.90
2023-03-23T18:52:42.254Z,14.90
2023-03-23T18:55:14.181Z,14.90
2023-03-23T18:57:46.149Z,14.90
2023-03-23T19:00:18.482Z,14.90
2023-03-23T19:02:52.072Z,14.90
2023-03-23T19:05:24.859Z,14.90
2023-03-23T19:07:58.082Z,14.90
2023-03-23T19:10:31.257Z,14.90
2023-03-23T19:13:03.665Z,14.90
2023-03-23T19:15:41.313Z,14.90
2023-03-23T19:18:13.341Z,14.90
2023-03-23T19:21:12.630Z,14.90
2023-03-23T19:23:39.055Z,14.90
2023-03-23T19:26:34.811Z,14.90
2023-03-23T19:31:47.347Z,14.80
2023-03-23T19:34:20.200Z,14.90
2023-03-23T19:36:56.432Z,14.80
2023-03-23T19:39:36.267Z,14.90
2023-03-23T19:42:08.729Z,14.80
2023-03-23T19:44:41.753Z,14.90
2023-03-23T19:47:14.480Z,14.80
2023-03-23T19:49:47.123Z,14.80
2023-03-23T19:52:19.105Z,14.80
2023-03-23T19:54:51.122Z,14.80
2023-03-23T19:57:23.422Z,14.80
2023-03-23T19:59:55.331Z,14.80
2023-03-23T20:02:27.327Z,14.80
2023-03-23T20:04:59.616Z,14.80
2023-03-23T20:07:31.609Z,14.80
2023-03-23T20:10:04.239Z,14.70
2023-03-23T20:12:36.737Z,14.70
2023-03-23T20:15:09.251Z,14.70
2023-03-23T20:17:41.322Z,14.70
2023-03-23T20:20:15.387Z,14.60
2023-03-23T20:22:48.505Z,14.60
2023-03-23T20:25:21.508Z,14.60
2023-03-23T20:27:55.031Z,14.50
2023-03-23T20:30:27.170Z,14.60
2023-03-23T20:33:00.750Z,14.50
2023-03-23T20:35:32.697Z,14.50
2023-03-23T20:38:04.693Z,14.50
2023-03-23T20:40:36.619Z,14.50
2023-03-23T20:43:10.797Z,14.40
2023-03-23T20:45:43.014Z,14.40
2023-03-23T20:48:15.720Z,14.40
2023-03-23T20:50:48.609Z,14.30
2023-03-23T20:53:22.507Z,14.30
2023-03-23T20:55:57.612Z,14.30
2023-03-23T20:58:30.210Z,14.30
2023-03-23T21:01:04.575Z,14.20
2023-03-23T21:03:40.673Z,14.20
2023-03-23T21:06:12.948Z,14.20
2023-03-23T21:08:45.067Z,14.20
2023-03-23T21:11:20.152Z,14.20
2023-03-23T21:13:53.165Z,14.20
2023-03-23T21:16:25.264Z,14.10
2023-03-23T21:18:57.448Z,14.10
2023-03-23T21:21:29.725Z,14.10
2023-03-23T21:24:02.161Z,14.10
2023-03-23T21:26:34.315Z,14.00
2023-03-23T21:29:10.298Z,14.00
2023-03-23T21:31:42.278Z,14.00
2023-03-23T21:34:14.309Z,14.00
2023-03-23T21:36:46.296Z,14.00
2023-03-23T21:39:20.028Z,14.00
2023-03-23T21:41:52.837Z,13.90
2023-03-23T21:44:24.792Z,13.90
2023-03-23T21:46:56.778Z,13.80
2023-03-23T21:49:30.101Z,13.80
2023-03-23T21:52:03.621Z,13.80
2023-03-23T21:54:35.560Z,13.80
2023-03-23T21:57:07.683Z,13.70
2023-03-23T21:59:39.601Z,13.70
2023-03-23T22:02:15.792Z,13.70
2023-03-23T22:04:48.322Z,13.60
2023-03-23T22:07:23.199Z,13.60
2023-03-23T22:09:55.259Z,13.60
2023-03-23T22:12:27.534Z,13.50
2023-03-23T22:14:59.538Z,13.50
2023-03-23T22:17:31.545Z,13.50
2023-03-23T22:20:06.971Z,13.40
2023-03-23T22:22:39.531Z,13.40
2023-03-23T22:25:11.496Z,13.40
2023-03-23T22:27:44.884Z,13.40
2023-03-23T22:30:17.062Z,13.30
2023-03-23T22:32:49.079Z,13.30
2023-03-23T22:35:21.237Z,13.20
2023-03-23T22:37:54.026Z,13.30
2023-03-23T22:40:26.131Z,13.20
2023-03-23T22:42:58.559Z,13.20
2023-03-23T22:45:31.570Z,13.20
2023-03-23T22:48:05.787Z,13.20
2023-03-23T22:50:37.729Z,13.20
2023-03-23T22:53:09.744Z,13.20
2023-03-23T22:55:48.597Z,13.20
2023-03-23T22:58:20.821Z,13.20
2023-03-23T23:01:01.253Z,13.10
2023-03-23T23:03:34.414Z,13.20
2023-03-23T23:06:07.895Z,13.10
2023-03-23T23:08:41.363Z,13.20
2023-03-23T23:11:17.574Z,13.10
2023-03-23T23:13:50.582Z,13.10
2023-03-23T23:16:24.481Z,13.10
2023-03-23T23:18:57.136Z,13.20
2023-03-23T23:21:29.278Z,13.10
2023-03-23T23:24:01.362Z,13.10
2023-03-23T23:26:33.917Z,13.10
2023-03-23T23:29:06.016Z,13.10
2023-03-23T23:31:38.494Z,13.20
2023-03-23T23:34:13.763Z,13.20
2023-03-23T23:36:45.741Z,13.20
2023-03-23T23:39:17.922Z,13.20
2023-03-23T23:41:51.365Z,13.20
2023-03-23T23:44:23.450Z,13.20
2023-03-23T23:46:57.443Z,13.10
2023-03-23T23:49:29.665Z,13.10
2023-03-23T23:52:02.167Z,13.20
2023-03-23T23:54:37.635Z,13.20
2023-03-23T23:57:09.863Z,13.20
2023-03-23T23:59:42.282Z,13.20
